Time;durP1;ratioP1;P1;durP2;ratioP2;P2;SDS_P1;SDS_P2;PMS_P1;PMS_P2;Temp;Humidity;BMP_temperature;BMP_pressure;BME280_temperature;BME280_humidity;BME280_pressure;Samples;Min_cycle;Max_cycle;Signal;HPM_P1;HPM_P2
2022/01/18 08:05:32;;;;;;;6.68;3.40;;;;;;;;;;6310597;22;21153;-83
2022/01/18 10:21:23;;;;;;;5.55;3.78;;;;;;;;;;6272977;22;20038;-81
2022/01/18 10:24:08;;;;;;;3.75;3.42;;;;;;;;;;6276854;22;20019;-83
2022/01/18 10:26:39;;;;;;;4.45;3.67;;;;;;;;;;6250108;22;20003;-83
2022/01/18 10:29:05;;;;;;;4.15;3.72;;;;;;;;;;6308066;22;20367;-84
2022/01/18 10:31:54;;;;;;;3.70;3.40;;;;;;;;;;6308625;22;19996;-85
2022/01/18 10:34:40;;;;;;;5.40;4.50;;;;;;;;;;6308629;22;20030;-84
2022/01/18 10:37:14;;;;;;;4.60;4.25;;;;;;;;;;6308704;22;20053;-83
2022/01/18 10:39:42;;;;;;;4.30;3.90;;;;;;;;;;6308072;22;20074;-84
2022/01/18 10:42:17;;;;;;;4.32;3.75;;;;;;;;;;6308557;22;19992;-83
2022/01/18 10:44:47;;;;;;;4.78;4.38;;;;;;;;;;6308293;22;20007;-83
2022/01/18 10:47:13;;;;;;;4.35;4.05;;;;;;;;;;6308201;22;20007;-84
2022/01/18 10:49:43;;;;;;;6.55;3.90;;;;;;;;;;6308739;22;19999;-84
2022/01/18 10:52:10;;;;;;;4.93;3.78;;;;;;;;;;6308435;22;20078;-84
2022/01/18 10:55:00;;;;;;;3.33;3.13;;;;;;;;;;6307977;22;20011;-84
2022/01/18 10:57:29;;;;;;;3.33;3.03;;;;;;;;;;6307982;22;20007;-84
2022/01/18 11:00:20;;;;;;;3.92;3.45;;;;;;;;;;6308498;22;19999;-83
2022/01/18 11:02:51;;;;;;;4.00;3.67;;;;;;;;;;6293064;22;20003;-82
2022/01/18 11:05:21;;;;;;;4.15;3.85;;;;;;;;;;6307828;22;20003;-82
2022/01/18 11:07:48;;;;;;;2.63;2.42;;;;;;;;;;6280560;22;20032;-82
2022/01/18 11:10:16;;;;;;;2.55;2.45;;;;;;;;;;6308067;22;20101;-82
2022/01/18 11:12:56;;;;;;;3.08;2.53;;;;;;;;;;6308401;22;20121;-83
2022/01/18 11:15:24;;;;;;;2.55;2.35;;;;;;;;;;6308095;22;20003;-82
2022/01/18 11:17:57;;;;;;;2.20;2.00;;;;;;;;;;6307939;22;20073;-82
2022/01/18 11:20:24;;;;;;;2.65;2.45;;;;;;;;;;6308178;22;20430;-81
2022/01/18 11:22:51;;;;;;;2.50;2.15;;;;;;;;;;6307947;22;20011;-82
2022/01/18 11:25:18;;;;;;;2.85;2.55;;;;;;;;;;6308172;22;20368;-82
2022/01/18 11:27:48;;;;;;;2.00;1.90;;;;;;;;;;6308375;22;20303;-81
2022/01/18 11:30:16;;;;;;;3.13;2.70;;;;;;;;;;6307826;22;20125;-81
2022/01/18 11:32:43;;;;;;;2.58;2.08;;;;;;;;;;6307906;22;20004;-83
2022/01/18 11:35:22;;;;;;;2.35;2.15;;;;;;;;;;6309913;22;20365;-81
2022/01/18 11:38:13;;;;;;;2.90;2.10;;;;;;;;;;6310201;22;20023;-81
2022/01/18 11:40:50;;;;;;;2.97;2.00;;;;;;;;;;6311312;22;20414;-82
2022/01/18 11:43:33;;;;;;;2.35;2.15;;;;;;;;;;6309777;22;20331;-83
2022/01/18 11:45:59;;;;;;;2.00;1.50;;;;;;;;;;6309999;22;20006;-83
2022/01/18 11:48:25;;;;;;;2.28;1.83;;;;;;;;;;6310848;22;19999;-83
2022/01/18 11:51:06;;;;;;;3.50;1.90;;;;;;;;;;6310295;22;20003;-82
2022/01/18 11:53:53;;;;;;;3.25;2.45;;;;;;;;;;6310308;22;20030;-82
2022/01/18 11:56:40;;;;;;;2.55;1.70;;;;;;;;;;6310245;22;20007;-83
2022/01/18 11:59:15;;;;;;;2.63;2.42;;;;;;;;;;6310288;22;20053;-89
2022/01/18 12:02:08;;;;;;;2.47;2.17;;;;;;;;;;6282599;22;20069;-86
2022/01/18 12:04:47;;;;;;;3.42;2.30;;;;;;;;;;6303361;22;20018;-84
2022/01/18 12:07:37;;;;;;;2.80;2.17;;;;;;;;;;6309712;22;20078;-84
2022/01/18 12:10:19;;;;;;;2.92;2.45;;;;;;;;;;6309715;22;20411;-87
2022/01/18 12:12:48;;;;;;;4.82;4.18;;;;;;;;;;6309710;22;19995;-84
2022/01/18 12:15:22;;;;;;;8.32;4.75;;;;;;;;;;6309723;22;20418;-84
2022/01/18 12:17:49;;;;;;;6.55;4.10;;;;;;;;;;6309573;22;19999;-86
2022/01/18 12:20:33;;;;;;;6.60;5.90;;;;;;;;;;6309808;22;20042;-84
2022/01/18 12:23:06;;;;;;;7.93;6.47;;;;;;;;;;6309663;22;20114;-84
2022/01/18 12:25:35;;;;;;;8.65;6.30;;;;;;;;;;6309884;22;20426;-83
2022/01/18 12:34:41;;;;;;;15.77;12.23;;;;;;;;;;6309596;22;20015;-82
2022/01/18 12:37:20;;;;;;;19.33;14.55;;;;;;;;;;6276989;22;20433;-82
2022/01/18 12:40:05;;;;;;;11.10;9.07;;;;;;;;;;6309546;22;19999;-82
2022/01/18 12:45:14;;;;;;;8.88;6.40;;;;;;;;;;6317579;22;20065;-82
2022/01/18 17:30:54;;;;;;;23.13;13.98;;;;;;;;;;6379252;22;20689;-82
2022/01/18 17:33:20;;;;;;;23.52;14.63;;;;;;;;;;6371467;22;20010;-81
2022/01/18 17:35:45;;;;;;;18.75;9.52;;;;;;;;;;6371749;22;20009;-83
2022/01/18 17:38:14;;;;;;;15.30;8.68;;;;;;;;;;6372027;22;20309;-83
2022/01/18 17:40:44;;;;;;;15.15;8.93;;;;;;;;;;6371641;22;20006;-84
2022/01/18 17:43:15;;;;;;;15.18;9.88;;;;;;;;;;6371764;22;20005;-83
2022/01/18 17:45:44;;;;;;;14.85;9.02;;;;;;;;;;6370050;22;20525;-83
2022/01/18 17:48:11;;;;;;;15.00;8.82;;;;;;;;;;6371902;22;20007;-83
2022/01/18 17:50:37;;;;;;;17.48;9.60;;;;;;;;;;6372293;22;19998;-83
2022/01/18 17:53:03;;;;;;;20.25;12.80;;;;;;;;;;6372355;22;20002;-82
2022/01/18 17:55:29;;;;;;;21.80;14.73;;;;;;;;;;6372440;22;20065;-83
2022/01/18 17:57:55;;;;;;;21.23;14.13;;;;;;;;;;6372334;22;20052;-83
2022/01/18 18:00:22;;;;;;;20.42;12.75;;;;;;;;;;6376562;22;20101;-83
2022/01/18 18:02:47;;;;;;;21.27;11.93;;;;;;;;;;6375414;22;19998;-80
2022/01/18 18:05:13;;;;;;;22.70;11.77;;;;;;;;;;6372569;22;20038;-84
2022/01/18 18:07:39;;;;;;;16.30;11.30;;;;;;;;;;6370175;22;20009;-84
2022/01/18 18:10:05;;;;;;;23.50;13.38;;;;;;;;;;6371858;22;20025;-84
2022/01/18 18:12:31;;;;;;;20.05;11.73;;;;;;;;;;6370328;22;20014;-84
2022/01/18 18:14:56;;;;;;;17.67;10.95;;;;;;;;;;6371985;22;20065;-83
2022/01/18 18:17:22;;;;;;;21.30;12.60;;;;;;;;;;6370227;22;20062;-83
2022/01/18 18:19:47;;;;;;;25.33;12.52;;;;;;;;;;6371684;22;19995;-83
2022/01/18 18:22:13;;;;;;;22.55;13.60;;;;;;;;;;6371272;22;19999;-83
2022/01/18 18:24:38;;;;;;;19.25;11.80;;;;;;;;;;6370637;22;20007;-86
2022/01/18 18:27:05;;;;;;;35.08;23.92;;;;;;;;;;6371313;22;19998;-84
2022/01/18 18:29:31;;;;;;;35.63;22.48;;;;;;;;;;6371290;22;20002;-84
2022/01/18 18:31:57;;;;;;;21.50;12.73;;;;;;;;;;6371467;22;20013;-83
2022/01/18 18:34:24;;;;;;;19.45;12.10;;;;;;;;;;6371197;22;20077;-83
2022/01/18 18:36:49;;;;;;;20.10;13.38;;;;;;;;;;6371547;22;20021;-84
2022/01/18 18:39:23;;;;;;;19.25;12.32;;;;;;;;;;6369468;22;20003;-86
2022/01/18 18:42:15;;;;;;;20.65;11.80;;;;;;;;;;6369641;22;20010;-83
2022/01/18 18:44:35;;;;;;;21.58;12.40;;;;;;;;;;6370374;22;20006;-83
2022/01/18 18:47:01;;;;;;;18.50;11.27;;;;;;;;;;6371097;22;19999;-83
2022/01/18 18:49:30;;;;;;;19.17;11.50;;;;;;;;;;6370968;22;19998;-84
2022/01/18 18:51:56;;;;;;;20.30;12.07;;;;;;;;;;6371116;22;19998;-83
2022/01/18 18:54:21;;;;;;;23.17;11.98;;;;;;;;;;6371150;22;20001;-83
2022/01/18 18:56:47;;;;;;;21.05;12.82;;;;;;;;;;6374630;22;20055;-85
2022/01/18 19:02:37;;;;;;;22.27;12.82;;;;;;;;;;6370607;22;20059;-86
2022/01/18 19:04:30;;;;;;;23.67;12.98;;;;;;;;;;6363018;22;20052;-84
2022/01/18 19:06:55;;;;;;;19.70;10.55;;;;;;;;;;6371006;22;20413;-82
2022/01/18 19:09:21;;;;;;;21.42;12.35;;;;;;;;;;6370783;22;20002;-82
2022/01/18 19:11:46;;;;;;;27.50;14.98;;;;;;;;;;6371268;22;20421;-83
2022/01/18 19:14:14;;;;;;;25.95;14.80;;;;;;;;;;6371046;22;20002;-83
2022/01/18 19:16:41;;;;;;;24.85;13.60;;;;;;;;;;6371036;22;20001;-83
2022/01/18 19:19:08;;;;;;;24.08;13.02;;;;;;;;;;6370597;22;20006;-83
2022/01/18 19:21:37;;;;;;;26.08;14.80;;;;;;;;;;6370915;22;20060;-84
2022/01/18 19:24:03;;;;;;;25.55;13.73;;;;;;;;;;6370423;22;20302;-86
2022/01/18 19:26:28;;;;;;;24.00;13.00;;;;;;;;;;6370972;22;20010;-87
2022/01/18 19:28:56;;;;;;;21.38;11.90;;;;;;;;;;6370595;22;20409;-86
2022/01/18 19:31:22;;;;;;;21.30;11.98;;;;;;;;;;6368683;22;20046;-86
2022/01/18 19:33:48;;;;;;;22.90;13.45;;;;;;;;;;6371095;22;20472;-87
2022/01/18 19:36:13;;;;;;;30.85;15.20;;;;;;;;;;6370919;22;20025;-87
2022/01/18 19:38:39;;;;;;;32.40;15.82;;;;;;;;;;6370129;22;20466;-87
2022/01/18 19:41:05;;;;;;;26.65;14.15;;;;;;;;;;6370912;22;20002;-89
2022/01/18 19:43:32;;;;;;;25.75;13.90;;;;;;;;;;6369323;22;20006;-87
2022/01/18 19:46:00;;;;;;;25.02;14.10;;;;;;;;;;6370833;22;20421;-86
2022/01/18 19:48:29;;;;;;;24.02;13.23;;;;;;;;;;6369077;22;20003;-87
2022/01/18 19:50:58;;;;;;;25.48;13.50;;;;;;;;;;6370825;22;20325;-87
2022/01/18 19:53:24;;;;;;;25.50;13.52;;;;;;;;;;6370935;22;20028;-88
2022/01/18 19:55:49;;;;;;;22.02;13.48;;;;;;;;;;6372320;22;20421;-88
2022/01/18 19:58:18;;;;;;;25.67;14.23;;;;;;;;;;6371089;22;20006;-87
2022/01/18 20:00:49;;;;;;;30.90;16.15;;;;;;;;;;6372422;22;20002;-87
2022/01/18 20:03:18;;;;;;;25.98;14.88;;;;;;;;;;6370913;22;20091;-86
2022/01/18 20:05:48;;;;;;;28.55;17.63;;;;;;;;;;6370695;22;20002;-87
2022/01/18 20:08:17;;;;;;;30.52;15.88;;;;;;;;;;6370903;22;20002;-86
2022/01/18 20:10:46;;;;;;;31.55;18.38;;;;;;;;;;6370947;22;20002;-88
2022/01/18 20:13:12;;;;;;;26.75;15.95;;;;;;;;;;6370863;22;20040;-87
2022/01/18 20:15:38;;;;;;;27.35;14.63;;;;;;;;;;6371360;22;20018;-88
2022/01/18 20:18:06;;;;;;;25.88;14.55;;;;;;;;;;6372724;22;20009;-87
2022/01/18 20:20:32;;;;;;;21.40;13.82;;;;;;;;;;6372714;22;20002;-91
2022/01/18 20:22:57;;;;;;;22.90;12.88;;;;;;;;;;6373100;22;20002;-90
2022/01/18 20:25:22;;;;;;;25.85;15.10;;;;;;;;;;6371514;22;20006;-89
2022/01/18 20:27:49;;;;;;;34.38;18.85;;;;;;;;;;6371360;22;19998;-89
2022/01/18 20:30:21;;;;;;;27.70;16.45;;;;;;;;;;6373161;22;20026;-91
2022/01/18 20:32:47;;;;;;;28.55;16.33;;;;;;;;;;6371530;22;20014;-87
2022/01/18 20:35:17;;;;;;;21.95;14.38;;;;;;;;;;6371117;22;20051;-88
2022/01/18 20:37:44;;;;;;;29.95;15.02;;;;;;;;;;6370928;22;20002;-87
2022/01/18 20:40:14;;;;;;;28.70;15.98;;;;;;;;;;6370723;22;20009;-87
2022/01/18 20:45:30;;;;;;;29.35;16.63;;;;;;;;;;6372594;22;20455;-88
2022/01/18 20:48:23;;;;;;;29.58;17.13;;;;;;;;;;6373468;22;20026;-86
2022/01/18 20:50:49;;;;;;;29.00;17.02;;;;;;;;;;6370532;22;20006;-87
2022/01/18 20:53:17;;;;;;;24.90;16.13;;;;;;;;;;6370734;22;20081;-87
2022/01/18 20:55:44;;;;;;;26.15;16.23;;;;;;;;;;6370671;22;20325;-87
2022/01/18 20:58:10;;;;;;;29.27;16.60;;;;;;;;;;6370649;22;19998;-86
2022/01/18 21:00:35;;;;;;;27.65;17.35;;;;;;;;;;6369938;22;20001;-87
2022/01/18 21:03:01;;;;;;;31.42;18.40;;;;;;;;;;6370409;22;20056;-87
2022/01/18 21:05:26;;;;;;;28.52;17.23;;;;;;;;;;6370604;22;20699;-86
2022/01/18 21:07:52;;;;;;;26.80;16.50;;;;;;;;;;6369906;22;20052;-86
2022/01/18 21:10:18;;;;;;;26.40;16.75;;;;;;;;;;6370358;22;20352;-87
2022/01/18 21:12:51;;;;;;;28.45;17.67;;;;;;;;;;6371753;22;20002;-87
2022/01/18 21:15:18;;;;;;;29.33;15.88;;;;;;;;;;6370366;22;20047;-87
2022/01/18 21:17:45;;;;;;;26.77;15.88;;;;;;;;;;6371684;22;19998;-87
2022/01/18 21:20:10;;;;;;;25.88;15.57;;;;;;;;;;6372061;22;20002;-85
2022/01/18 21:22:36;;;;;;;26.38;15.68;;;;;;;;;;6370183;22;20037;-87
2022/01/18 21:25:03;;;;;;;26.58;16.23;;;;;;;;;;6371561;22;20030;-88
2022/01/18 21:27:28;;;;;;;31.25;16.83;;;;;;;;;;6370157;22;20006;-87
2022/01/18 21:29:54;;;;;;;26.23;15.95;;;;;;;;;;6371797;22;20290;-86
2022/01/18 21:32:19;;;;;;;29.95;17.77;;;;;;;;;;6369971;22;20014;-88
2022/01/18 21:34:45;;;;;;;32.03;18.75;;;;;;;;;;6371438;22;20089;-87
2022/01/18 21:37:10;;;;;;;33.10;19.70;;;;;;;;;;6371760;22;20007;-87
2022/01/18 21:39:36;;;;;;;30.17;18.73;;;;;;;;;;6369828;22;20070;-87
2022/01/18 21:42:02;;;;;;;30.90;18.73;;;;;;;;;;6370082;22;20002;-88
2022/01/18 21:44:27;;;;;;;32.80;18.17;;;;;;;;;;6371266;22;20025;-87
2022/01/18 21:46:53;;;;;;;27.52;17.48;;;;;;;;;;6371375;22;20443;-87
2022/01/18 21:49:19;;;;;;;27.83;16.30;;;;;;;;;;6370178;22;19998;-87
2022/01/18 21:51:44;;;;;;;25.10;14.60;;;;;;;;;;6370166;22;20010;-87
2022/01/18 21:54:10;;;;;;;23.27;14.85;;;;;;;;;;6371780;22;20071;-87
2022/01/18 21:56:36;;;;;;;25.42;13.60;;;;;;;;;;6370307;22;20359;-84
2022/01/18 21:59:04;;;;;;;21.70;12.75;;;;;;;;;;6369898;22;20008;-85
2022/01/18 22:01:31;;;;;;;26.15;14.75;;;;;;;;;;6371449;22;19995;-85
2022/01/18 22:03:56;;;;;;;27.38;14.88;;;;;;;;;;6369880;22;20003;-86
2022/01/18 22:06:21;;;;;;;28.65;16.08;;;;;;;;;;6369961;22;20051;-86
2022/01/18 22:08:48;;;;;;;26.92;14.90;;;;;;;;;;6369633;22;20047;-87
2022/01/18 22:11:14;;;;;;;25.00;14.75;;;;;;;;;;6369849;22;20329;-86
2022/01/18 22:13:39;;;;;;;23.50;14.55;;;;;;;;;;6369947;22;20006;-86
2022/01/18 22:16:05;;;;;;;23.33;13.48;;;;;;;;;;6369980;22;20003;-86
2022/01/18 22:18:31;;;;;;;22.23;12.48;;;;;;;;;;6369223;22;20007;-87
2022/01/18 22:20:58;;;;;;;20.73;12.18;;;;;;;;;;6371257;22;20425;-86
2022/01/18 22:23:23;;;;;;;19.60;11.43;;;;;;;;;;6369867;22;20079;-87
2022/01/18 22:25:49;;;;;;;21.98;14.70;;;;;;;;;;6371486;22;20002;-86
2022/01/18 22:28:16;;;;;;;20.23;11.95;;;;;;;;;;6371151;22;19998;-86
2022/01/18 22:30:42;;;;;;;20.48;12.93;;;;;;;;;;6369811;22;20002;-86
2022/01/18 22:33:07;;;;;;;19.05;12.90;;;;;;;;;;6371123;22;20025;-86
2022/01/18 22:35:33;;;;;;;19.20;12.85;;;;;;;;;;6369804;22;20013;-86
2022/01/18 22:38:00;;;;;;;19.50;11.75;;;;;;;;;;6371309;22;19998;-86
2022/01/18 22:40:30;;;;;;;17.55;10.60;;;;;;;;;;6371239;22;20043;-86
2022/01/18 22:42:56;;;;;;;25.65;14.35;;;;;;;;;;6369539;22;20055;-86
2022/01/18 22:45:22;;;;;;;22.40;12.88;;;;;;;;;;6369349;22;20436;-86
2022/01/18 22:47:51;;;;;;;24.98;14.63;;;;;;;;;;6369358;22;20003;-86
2022/01/18 22:50:18;;;;;;;22.70;13.77;;;;;;;;;;6371114;22;19998;-86
2022/01/18 22:52:46;;;;;;;23.30;13.65;;;;;;;;;;6371281;22;19999;-86
2022/01/18 22:55:12;;;;;;;20.08;13.68;;;;;;;;;;6371391;22;20415;-86
2022/01/18 22:57:37;;;;;;;23.60;14.55;;;;;;;;;;6369505;22;19998;-86
2022/01/18 23:00:14;;;;;;;26.70;14.95;;;;;;;;;;6369594;22;20014;-86
2022/01/18 23:02:39;;;;;;;27.05;14.27;;;;;;;;;;6369607;22;19998;-86
2022/01/18 23:05:07;;;;;;;23.42;14.82;;;;;;;;;;6371226;22;20006;-88
2022/01/18 23:07:33;;;;;;;24.15;13.57;;;;;;;;;;6369233;22;20002;-88
2022/01/18 23:09:59;;;;;;;31.33;15.85;;;;;;;;;;6368899;22;20074;-86
2022/01/18 23:12:25;;;;;;;29.65;15.55;;;;;;;;;;6370741;22;20446;-88
2022/01/18 23:14:51;;;;;;;24.95;14.23;;;;;;;;;;6369157;22;20010;-88
2022/01/18 23:17:16;;;;;;;26.33;14.48;;;;;;;;;;6370949;22;20005;-88
